Janesville, IA (50647)

11:21 AM CDT on May 24, 2015 (GMT -0500)
The Llama Pasture | | Change Station
CLOSE
Current Station
Personal Weather Station
Location: Waverly, IA
Elevation: 948 ft
Nearby Weather Stations

Elev 948 ft 42.69 °N, 92.45 °W | Updated 1 minute ago

Rain
Rain
58.7 °F
Feels Like 58.7 °F
N
7.0
Wind Variable Wind from East
Gusts 7.0 mph

Today
High -- | Low -- °F
--% Chance of Precip.
Yesterday
High -- | Low -- °F
Precip. -- in
5:39 AM 8:34 PM
Waxing Crescent, 40% visible
Pressure 29.97 in
Visibility 4.0 miles
Clouds Mostly Cloudy 800 ft
Overcast 1200 ft
Dew Point 57 °F
Humidity 95%
Rainfall 0.47 in
Snow Depth Not available.
UV 3 out of 12
Pollen 3.90 out of 12
Air Quality Not available.
Flu Activity Sporadic
METAR KALO 241554Z 11014G20KT 4SM -RA BR BKN008 OVC012 15/14 A2998 RMK AO2 CIG 006V011 SLP149 P0006 T01500139

More Conditions Fewer Conditions

Pressure 29.97 in
Visibility 4.0 miles
Clouds Mostly Cloudy 800 ft
Overcast 1200 ft
Dew Point 57 °F
Humidity 95%
Rainfall 0.47 in
Snow Depth Not available.
UV 3 out of 12
Pollen 3.90 out of 12
Air Quality Not available.
Flu Activity Sporadic
METAR KALO 241554Z 11014G20KT 4SM -RA BR BKN008 OVC012 15/14 A2998 RMK AO2 CIG 006V011 SLP149 P0006 T01500139

More Conditions Fewer Conditions

10-Day Weather Forecast

Almanac

Astronomy

May. 24, 2015 Rise Set
Actual Time
Civil Twilight
Nautical Twilight
Astronomical Twilight
Moon
Length of Visible Light
Length of Day
Tomorrow will be .
, % of the Moon is Illuminated

Today's Extremes

State Highs State Lows

Community

WunderPhotos

Upload Photos

1,823,781 photos uploaded!

WunderBlogs® & News

Nearby

Air Quality

  Air Quality AQ Index Pollutant
Not available.

Snow Depth

Station Depth Elevation

Earthquake Activity

City Distance Mag. Time & Date
Minimum magnitude displayed is 2.5.

Coastal Water Temperatures

Place Temperature

Stations

Nearby Weather Stations

Station Location Temp. Windchill Dew Point Humidity Wind Precip. Elev Updated Type